sensor_id;sensor_type;location;lat;lon;timestamp;pressure;altitude;pressure_sealevel;temperature;humidity
15794;BME280;7999;51.208;4.244;2023-01-29T00:00:02;103081.03;;;-2.55;100.00
15794;BME280;7999;51.208;4.244;2023-01-29T00:02:37;103081.91;;;-2.54;100.00
15794;BME280;7999;51.208;4.244;2023-01-29T00:05:06;103075.25;;;-2.62;100.00
15794;BME280;7999;51.208;4.244;2023-01-29T00:07:33;103084.69;;;-2.61;100.00
15794;BME280;7999;51.208;4.244;2023-01-29T00:09:59;103074.91;;;-2.57;100.00
15794;BME280;7999;51.208;4.244;2023-01-29T00:12:26;103077.53;;;-2.65;100.00
15794;BME280;7999;51.208;4.244;2023-01-29T00:14:53;103075.25;;;-2.62;100.00
15794;BME280;7999;51.208;4.244;2023-01-29T00:17:19;103077.41;;;-2.67;100.00
15794;BME280;7999;51.208;4.244;2023-01-29T00:19:46;103070.94;;;-2.63;100.00
15794;BME280;7999;51.208;4.244;2023-01-29T00:22:14;103061.09;;;-2.69;100.00
15794;BME280;7999;51.208;4.244;2023-01-29T00:24:41;103061.00;;;-2.60;100.00
15794;BME280;7999;51.208;4.244;2023-01-29T00:27:08;103059.75;;;-2.55;100.00
15794;BME280;7999;51.208;4.244;2023-01-29T00:29:35;103053.59;;;-2.38;100.00
15794;BME280;7999;51.208;4.244;2023-01-29T00:32:02;103056.66;;;-2.42;100.00
15794;BME280;7999;51.208;4.244;2023-01-29T00:34:28;103058.50;;;-2.50;100.00
15794;BME280;7999;51.208;4.244;2023-01-29T00:36:55;103059.25;;;-2.51;100.00
15794;BME280;7999;51.208;4.244;2023-01-29T00:39:30;103050.94;;;-2.40;100.00
15794;BME280;7999;51.208;4.244;2023-01-29T00:42:03;103046.09;;;-2.37;100.00
15794;BME280;7999;51.208;4.244;2023-01-29T00:44:47;103035.91;;;-2.37;100.00
15794;BME280;7999;51.208;4.244;2023-01-29T00:47:23;103041.00;;;-2.37;100.00
15794;BME280;7999;51.208;4.244;2023-01-29T00:49:57;103030.56;;;-2.40;100.00
15794;BME280;7999;51.208;4.244;2023-01-29T00:52:25;103037.66;;;-2.46;100.00
15794;BME280;7999;51.208;4.244;2023-01-29T00:54:54;103040.22;;;-2.46;100.00
15794;BME280;7999;51.208;4.244;2023-01-29T00:57:21;103040.41;;;-2.53;100.00
15794;BME280;7999;51.208;4.244;2023-01-29T00:59:48;103039.66;;;-2.52;100.00
15794;BME280;7999;51.208;4.244;2023-01-29T01:02:14;103029.19;;;-2.55;100.00
15794;BME280;7999;51.208;4.244;2023-01-29T01:04:59;103028.19;;;-2.57;100.00
15794;BME280;7999;51.208;4.244;2023-01-29T01:07:27;103027.41;;;-2.56;100.00
15794;BME280;7999;51.208;4.244;2023-01-29T01:09:55;103020.16;;;-2.52;100.00
15794;BME280;7999;51.208;4.244;2023-01-29T01:12:40;103027.19;;;-2.49;100.00
15794;BME280;7999;51.208;4.244;2023-01-29T01:15:07;103033.03;;;-2.50;100.00
15794;BME280;7999;51.208;4.244;2023-01-29T01:17:33;103034.28;;;-2.55;100.00
15794;BME280;7999;51.208;4.244;2023-01-29T01:20:00;103025.81;;;-2.45;100.00
15794;BME280;7999;51.208;4.244;2023-01-29T01:22:27;103016.78;;;-2.42;100.00
15794;BME280;7999;51.208;4.244;2023-01-29T01:24:55;103017.31;;;-2.36;100.00
15794;BME280;7999;51.208;4.244;2023-01-29T01:27:22;103008.91;;;-2.35;100.00
15794;BME280;7999;51.208;4.244;2023-01-29T01:29:49;103003.81;;;-2.35;100.00
15794;BME280;7999;51.208;4.244;2023-01-29T01:32:16;103010.22;;;-2.20;100.00
15794;BME280;7999;51.208;4.244;2023-01-29T01:34:43;103006.94;;;-2.19;100.00
15794;BME280;7999;51.208;4.244;2023-01-29T01:37:12;103013.81;;;-2.17;100.00
15794;BME280;7999;51.208;4.244;2023-01-29T01:39:39;103013.81;;;-2.17;100.00
15794;BME280;7999;51.208;4.244;2023-01-29T01:42:10;103017.91;;;-2.09;100.00
15794;BME280;7999;51.208;4.244;2023-01-29T01:44:48;103017.91;;;-2.09;100.00
15794;BME280;7999;51.208;4.244;2023-01-29T01:47:17;103018.66;;;-2.00;100.00
15794;BME280;7999;51.208;4.244;2023-01-29T01:49:46;103013.50;;;-1.92;100.00
15794;BME280;7999;51.208;4.244;2023-01-29T01:52:13;103018.66;;;-2.00;100.00
15794;BME280;7999;51.208;4.244;2023-01-29T01:54:41;103015.53;;;-1.88;100.00
15794;BME280;7999;51.208;4.244;2023-01-29T01:57:10;103028.16;;;-1.69;100.00
15794;BME280;7999;51.208;4.244;2023-01-29T01:59:40;103022.81;;;-1.62;100.00
15794;BME280;7999;51.208;4.244;2023-01-29T02:02:08;103032.75;;;-1.54;100.00
15794;BME280;7999;51.208;4.244;2023-01-29T02:04:54;103028.41;;;-1.66;100.00
15794;BME280;7999;51.208;4.244;2023-01-29T02:07:39;103036.31;;;-1.52;100.00
15794;BME280;7999;51.208;4.244;2023-01-29T02:10:25;103040.41;;;-1.54;100.00
15794;BME280;7999;51.208;4.244;2023-01-29T02:12:55;103046.78;;;-1.39;100.00
15794;BME280;7999;51.208;4.244;2023-01-29T02:15:22;103043.19;;;-1.41;100.00
15794;BME280;7999;51.208;4.244;2023-01-29T02:17:49;103041.94;;;-1.36;100.00
15794;BME280;7999;51.208;4.244;2023-01-29T02:20:17;103040.78;;;-1.30;100.00
15794;BME280;7999;51.208;4.244;2023-01-29T02:22:50;103039.13;;;-1.19;100.00
15794;BME280;7999;51.208;4.244;2023-01-29T02:25:32;103044.72;;;-1.03;100.00
15794;BME280;7999;51.208;4.244;2023-01-29T02:28:09;103041.25;;;-0.93;100.00
15794;BME280;7999;51.208;4.244;2023-01-29T02:30:40;103047.03;;;-1.06;100.00
15794;BME280;7999;51.208;4.244;2023-01-29T02:33:12;103049.78;;;-0.93;100.00
15794;BME280;7999;51.208;4.244;2023-01-29T02:35:40;103044.41;;;-0.85;100.00
15794;BME280;7999;51.208;4.244;2023-01-29T02:38:09;103045.19;;;-0.86;100.00
15794;BME280;7999;51.208;4.244;2023-01-29T02:40:40;103038.53;;;-0.74;100.00
15794;BME280;7999;51.208;4.244;2023-01-29T02:43:13;103029.81;;;-0.66;100.00
15794;BME280;7999;51.208;4.244;2023-01-29T02:45:43;103031.19;;;-0.59;100.00
15794;BME280;7999;51.208;4.244;2023-01-29T02:48:15;103026.72;;;-0.62;100.00
15794;BME280;7999;51.208;4.244;2023-01-29T02:50:43;103028.09;;;-0.55;100.00
15794;BME280;7999;51.208;4.244;2023-01-29T02:53:12;103025.69;;;-0.54;100.00
15794;BME280;7999;51.208;4.244;2023-01-29T02:55:41;103020.59;;;-0.54;100.00
15794;BME280;7999;51.208;4.244;2023-01-29T02:58:12;103016.50;;;-0.62;100.00
15794;BME280;7999;51.208;4.244;2023-01-29T03:00:41;103020.06;;;-0.50;100.00
15794;BME280;7999;51.208;4.244;2023-01-29T03:03:11;103027.31;;;-0.44;100.00
15794;BME280;7999;51.208;4.244;2023-01-29T03:05:42;103023.56;;;-0.38;100.00
15794;BME280;7999;51.208;4.244;2023-01-29T03:08:19;103026.41;;;-0.45;100.00
15794;BME280;7999;51.208;4.244;2023-01-29T03:10:47;103033.78;;;-0.38;100.00
15794;BME280;7999;51.208;4.244;2023-01-29T03:13:17;103027.19;;;-0.56;100.00
15794;BME280;7999;51.208;4.244;2023-01-29T03:15:46;103025.63;;;-0.44;100.00
15794;BME280;7999;51.208;4.244;2023-01-29T03:18:32;103027.31;;;-0.44;100.00
15794;BME280;7999;51.208;4.244;2023-01-29T03:21:07;103021.84;;;-0.49;100.00
15794;BME280;7999;51.208;4.244;2023-01-29T03:23:59;103020.16;;;-0.48;100.00
15794;BME280;7999;51.208;4.244;2023-01-29T03:26:43;103018.44;;;-0.38;100.00
15794;BME280;7999;51.208;4.244;2023-01-29T03:29:33;103015.34;;;-0.34;100.00
15794;BME280;7999;51.208;4.244;2023-01-29T03:32:20;103009.78;;;-0.40;100.00
15794;BME280;7999;51.208;4.244;2023-01-29T03:34:49;103005.91;;;-0.35;100.00
15794;BME280;7999;51.208;4.244;2023-01-29T03:37:19;102998.47;;;-0.32;100.00
15794;BME280;7999;51.208;4.244;2023-01-29T03:39:48;102995.66;;;-0.24;100.00
15794;BME280;7999;51.208;4.244;2023-01-29T03:42:17;103005.56;;;-0.17;100.00
15794;BME280;7999;51.208;4.244;2023-01-29T03:44:50;102998.59;;;-0.08;100.00
15794;BME280;7999;51.208;4.244;2023-01-29T03:47:29;103003.25;;;-0.14;100.00
15794;BME280;7999;51.208;4.244;2023-01-29T03:50:00;103006.81;;;-0.12;100.00
15794;BME280;7999;51.208;4.244;2023-01-29T03:52:31;103010.25;;;-0.12;100.00
15794;BME280;7999;51.208;4.244;2023-01-29T03:55:04;103011.84;;;-0.02;100.00
15794;BME280;7999;51.208;4.244;2023-01-29T03:57:35;103010.44;;;-0.20;100.00
15794;BME280;7999;51.208;4.244;2023-01-29T04:00:09;103008.34;;;-0.36;100.00
15794;BME280;7999;51.208;4.244;2023-01-29T04:03:02;103003.59;;;-0.32;100.00
15794;BME280;7999;51.208;4.244;2023-01-29T04:05:34;103001.00;;;-0.21;100.00
15794;BME280;7999;51.208;4.244;2023-01-29T04:08:14;102998.78;;;-0.39;100.00
15794;BME280;7999;51.208;4.244;2023-01-29T04:10:43;102994.69;;;-0.37;100.00
15794;BME280;7999;51.208;4.244;2023-01-29T04:13:10;102989.56;;;-0.37;100.00
15794;BME280;7999;51.208;4.244;2023-01-29T04:15:42;102994.78;;;-0.35;100.00
15794;BME280;7999;51.208;4.244;2023-01-29T04:18:10;102995.50;;;-0.48;100.00
15794;BME280;7999;51.208;4.244;2023-01-29T04:20:56;102997.59;;;-0.32;100.00
15794;BME280;7999;51.208;4.244;2023-01-29T04:23:23;103002.31;;;-0.26;100.00
15794;BME280;7999;51.208;4.244;2023-01-29T04:25:52;103004.22;;;-0.24;100.00
15794;BME280;7999;51.208;4.244;2023-01-29T04:28:25;102990.88;;;-0.42;100.00
15794;BME280;7999;51.208;4.244;2023-01-29T04:31:04;102987.38;;;-0.32;100.00
15794;BME280;7999;51.208;4.244;2023-01-29T04:33:33;102992.78;;;-0.17;100.00
15794;BME280;7999;51.208;4.244;2023-01-29T04:36:11;102991.00;;;-0.18;100.00
15794;BME280;7999;51.208;4.244;2023-01-29T04:38:44;102984.94;;;-0.31;100.00
15794;BME280;7999;51.208;4.244;2023-01-29T04:41:15;102969.66;;;-0.41;100.00
15794;BME280;7999;51.208;4.244;2023-01-29T04:43:46;102986.19;;;-0.25;100.00
15794;BME280;7999;51.208;4.244;2023-01-29T04:46:26;102980.00;;;-0.17;100.00
15794;BME280;7999;51.208;4.244;2023-01-29T04:48:57;102977.66;;;-0.26;100.00
15794;BME280;7999;51.208;4.244;2023-01-29T04:51:30;102971.13;;;-0.33;100.00
15794;BME280;7999;51.208;4.244;2023-01-29T04:54:00;102965.31;;;-0.20;100.00
15794;BME280;7999;51.208;4.244;2023-01-29T04:56:31;102959.88;;;-0.24;100.00
15794;BME280;7999;51.208;4.244;2023-01-29T04:59:01;102949.88;;;-0.21;100.00
15794;BME280;7999;51.208;4.244;2023-01-29T05:01:31;102937.81;;;-0.34;100.00
15794;BME280;7999;51.208;4.244;2023-01-29T05:03:59;102945.22;;;-0.15;100.00
15794;BME280;7999;51.208;4.244;2023-01-29T05:06:27;102946.16;;;-0.03;100.00
15794;BME280;7999;51.208;4.244;2023-01-29T05:08:56;102934.91;;;-0.05;100.00
15794;BME280;7999;51.208;4.244;2023-01-29T05:11:23;102930.59;;;-0.06;100.00
15794;BME280;7999;51.208;4.244;2023-01-29T05:13:50;102932.56;;;-0.14;100.00
15794;BME280;7999;51.208;4.244;2023-01-29T05:16:18;102926.78;;;-0.11;100.00
15794;BME280;7999;51.208;4.244;2023-01-29T05:18:47;102933.03;;;-0.08;100.00
15794;BME280;7999;51.208;4.244;2023-01-29T05:21:14;102932.34;;;-0.05;100.00
15794;BME280;7999;51.208;4.244;2023-01-29T05:23:41;102939.13;;;-0.06;100.00
15794;BME280;7999;51.208;4.244;2023-01-29T05:26:24;102944.97;;;0.04;100.00
15794;BME280;7999;51.208;4.244;2023-01-29T05:29:08;102936.94;;;-0.01;100.00
15794;BME280;7999;51.208;4.244;2023-01-29T05:31:36;102939.38;;;-0.03;100.00
15794;BME280;7999;51.208;4.244;2023-01-29T05:34:04;102940.56;;;-0.09;100.00
15794;BME280;7999;51.208;4.244;2023-01-29T05:36:31;102938.13;;;-0.08;100.00
15794;BME280;7999;51.208;4.244;2023-01-29T05:38:57;102943.06;;;0.01;100.00
15794;BME280;7999;51.208;4.244;2023-01-29T05:41:24;102930.88;;;0.09;100.00
15794;BME280;7999;51.208;4.244;2023-01-29T05:43:51;102930.16;;;-0.01;100.00
15794;BME280;7999;51.208;4.244;2023-01-29T05:46:17;102924.63;;;0.05;100.00
15794;BME280;7999;51.208;4.244;2023-01-29T05:48:44;102925.41;;;0.04;100.00
15794;BME280;7999;51.208;4.244;2023-01-29T05:51:12;102921.13;;;-0.07;100.00
15794;BME280;7999;51.208;4.244;2023-01-29T05:53:39;102921.34;;;-0.04;100.00
15794;BME280;7999;51.208;4.244;2023-01-29T05:56:07;102906.34;;;-0.11;100.00
15794;BME280;7999;51.208;4.244;2023-01-29T05:58:34;102917.69;;;-0.08;100.00
15794;BME280;7999;51.208;4.244;2023-01-29T06:01:07;102919.47;;;-0.07;100.00
15794;BME280;7999;51.208;4.244;2023-01-29T06:03:33;102920.13;;;-0.09;100.00
15794;BME280;7999;51.208;4.244;2023-01-29T06:06:00;102918.81;;;-0.04;100.00
15794;BME280;7999;51.208;4.244;2023-01-29T06:08:28;102911.91;;;-0.05;100.00
15794;BME280;7999;51.208;4.244;2023-01-29T06:10:55;102915.00;;;-0.09;100.00
15794;BME280;7999;51.208;4.244;2023-01-29T06:13:25;102911.91;;;-0.05;100.00
15794;BME280;7999;51.208;4.244;2023-01-29T06:15:51;102910.63;;;0.00;100.00
15794;BME280;7999;51.208;4.244;2023-01-29T06:18:18;102903.22;;;-0.07;100.00
15794;BME280;7999;51.208;4.244;2023-01-29T06:20:45;102911.69;;;-0.08;100.00
15794;BME280;7999;51.208;4.244;2023-01-29T06:23:12;102909.47;;;-0.04;100.00
15794;BME280;7999;51.208;4.244;2023-01-29T06:25:41;102909.91;;;-0.09;100.00
15794;BME280;7999;51.208;4.244;2023-01-29T06:28:08;102915.25;;;-0.06;100.00
15794;BME280;7999;51.208;4.244;2023-01-29T06:30:34;102911.34;;;-0.01;100.00
15794;BME280;7999;51.208;4.244;2023-01-29T06:33:01;102912.41;;;0.01;100.00
15794;BME280;7999;51.208;4.244;2023-01-29T06:35:28;102908.81;;;-0.01;100.00
15794;BME280;7999;51.208;4.244;2023-01-29T06:37:55;102898.16;;;0.05;100.00
15794;BME280;7999;51.208;4.244;2023-01-29T06:40:21;102896.78;;;-0.02;100.00
15794;BME280;7999;51.208;4.244;2023-01-29T06:42:49;102896.03;;;-0.01;100.00
15794;BME280;7999;51.208;4.244;2023-01-29T06:45:16;102906.78;;;-0.05;100.00
15794;BME280;7999;51.208;4.244;2023-01-29T06:47:43;102905.00;;;-0.06;100.00
15794;BME280;7999;51.208;4.244;2023-01-29T06:50:10;102909.34;;;-0.05;100.00
15794;BME280;7999;51.208;4.244;2023-01-29T06:52:37;102906.03;;;-0.04;100.00
15794;BME280;7999;51.208;4.244;2023-01-29T06:55:04;102901.06;;;0.09;100.00
15794;BME280;7999;51.208;4.244;2023-01-29T06:57:30;102904.84;;;0.03;100.00
15794;BME280;7999;51.208;4.244;2023-01-29T06:59:59;102910.84;;;0.03;100.00
15794;BME280;7999;51.208;4.244;2023-01-29T07:02:25;102899.75;;;0.14;100.00
15794;BME280;7999;51.208;4.244;2023-01-29T07:04:52;102908.75;;;0.09;100.00
15794;BME280;7999;51.208;4.244;2023-01-29T07:07:19;102897.97;;;0.13;100.00
15794;BME280;7999;51.208;4.244;2023-01-29T07:09:45;102889.50;;;0.14;100.00
15794;BME280;7999;51.208;4.244;2023-01-29T07:12:12;102896.38;;;0.04;100.00
15794;BME280;7999;51.208;4.244;2023-01-29T07:14:39;102897.94;;;0.02;100.00
15794;BME280;7999;51.208;4.244;2023-01-29T07:17:07;102896.84;;;0.10;100.00
15794;BME280;7999;51.208;4.244;2023-01-29T07:19:33;102903.16;;;0.03;100.00
15794;BME280;7999;51.208;4.244;2023-01-29T07:22:03;102897.63;;;0.09;100.00
15794;BME280;7999;51.208;4.244;2023-01-29T07:24:30;102897.28;;;0.04;100.00
15794;BME280;7999;51.208;4.244;2023-01-29T07:26:56;102907.53;;;0.16;100.00
15794;BME280;7999;51.208;4.244;2023-01-29T07:29:23;102901.19;;;0.11;100.00
15794;BME280;7999;51.208;4.244;2023-01-29T07:31:49;102908.28;;;0.03;100.00
15794;BME280;7999;51.208;4.244;2023-01-29T07:34:18;102904.84;;;0.14;100.00
15794;BME280;7999;51.208;4.244;2023-01-29T07:36:47;102904.63;;;0.11;100.00
15794;BME280;7999;51.208;4.244;2023-01-29T07:39:14;102910.19;;;0.17;100.00
15794;BME280;7999;51.208;4.244;2023-01-29T07:41:41;102913.31;;;0.13;100.00
15794;BME280;7999;51.208;4.244;2023-01-29T07:44:14;102905.53;;;0.23;100.00
15794;BME280;7999;51.208;4.244;2023-01-29T07:46:41;102905.31;;;0.20;100.00
15794;BME280;7999;51.208;4.244;2023-01-29T07:49:08;102900.63;;;0.26;100.00
15794;BME280;7999;51.208;4.244;2023-01-29T07:51:37;102905.31;;;0.20;100.00
15794;BME280;7999;51.208;4.244;2023-01-29T07:54:04;102906.75;;;0.17;100.00
15794;BME280;7999;51.208;4.244;2023-01-29T07:56:31;102898.34;;;0.29;100.00
15794;BME280;7999;51.208;4.244;2023-01-29T07:58:58;102898.66;;;0.34;100.00
15794;BME280;7999;51.208;4.244;2023-01-29T08:01:25;102898.22;;;0.28;100.00
15794;BME280;7999;51.208;4.244;2023-01-29T08:03:52;102893.44;;;0.33;100.00
15794;BME280;7999;51.208;4.244;2023-01-29T08:06:19;102904.44;;;0.32;100.00
15794;BME280;7999;51.208;4.244;2023-01-29T08:08:47;102902.91;;;0.34;100.00
15794;BME280;7999;51.208;4.244;2023-01-29T08:11:14;102904.91;;;0.38;100.00
15794;BME280;7999;51.208;4.244;2023-01-29T08:13:42;102910.47;;;0.44;100.00
15794;BME280;7999;51.208;4.244;2023-01-29T08:16:09;102910.13;;;0.51;100.00
15794;BME280;7999;51.208;4.244;2023-01-29T08:18:36;102900.78;;;0.51;100.00
15794;BME280;7999;51.208;4.244;2023-01-29T08:21:03;102902.56;;;0.52;100.00
15794;BME280;7999;51.208;4.244;2023-01-29T08:23:30;102897.34;;;0.51;100.00
15794;BME280;7999;51.208;4.244;2023-01-29T08:26:00;102896.44;;;0.39;100.00
15794;BME280;7999;51.208;4.244;2023-01-29T08:28:28;102894.22;;;0.43;100.00
15794;BME280;7999;51.208;4.244;2023-01-29T08:30:55;102901.44;;;0.49;100.00
15794;BME280;7999;51.208;4.244;2023-01-29T08:33:22;102895.78;;;0.53;100.00
15794;BME280;7999;51.208;4.244;2023-01-29T08:35:50;102900.88;;;0.53;100.00
15794;BME280;7999;51.208;4.244;2023-01-29T08:38:17;102900.91;;;0.65;100.00
15794;BME280;7999;51.208;4.244;2023-01-29T08:40:44;102886.44;;;0.53;100.00
15794;BME280;7999;51.208;4.244;2023-01-29T08:43:13;102884.00;;;0.55;100.00
15794;BME280;7999;51.208;4.244;2023-01-29T08:45:40;102886.66;;;0.68;100.00
15794;BME280;7999;51.208;4.244;2023-01-29T08:48:08;102887.34;;;0.66;100.00
15794;BME280;7999;51.208;4.244;2023-01-29T08:50:35;102877.88;;;0.65;100.00
15794;BME280;7999;51.208;4.244;2023-01-29T08:53:03;102882.44;;;0.69;100.00
15794;BME280;7999;51.208;4.244;2023-01-29T08:55:31;102885.78;;;0.68;100.00
15794;BME280;7999;51.208;4.244;2023-01-29T08:57:59;102884.44;;;0.73;100.00
15794;BME280;7999;51.208;4.244;2023-01-29T09:00:27;102877.84;;;0.76;100.00
15794;BME280;7999;51.208;4.244;2023-01-29T09:02:54;102883.88;;;0.88;100.00
15794;BME280;7999;51.208;4.244;2023-01-29T09:05:21;102885.53;;;0.76;100.00
15794;BME280;7999;51.208;4.244;2023-01-29T09:07:48;102883.09;;;0.89;100.00
15794;BME280;7999;51.208;4.244;2023-01-29T09:10:15;102874.72;;;0.80;100.00
15794;BME280;7999;51.208;4.244;2023-01-29T09:12:42;102873.84;;;0.91;100.00
15794;BME280;7999;51.208;4.244;2023-01-29T09:15:09;102879.75;;;0.90;100.00
15794;BME280;7999;51.208;4.244;2023-01-29T09:17:38;102878.41;;;0.96;100.00
15794;BME280;7999;51.208;4.244;2023-01-29T09:20:06;102876.97;;;0.87;100.00
15794;BME280;7999;51.208;4.244;2023-01-29T09:22:33;102875.41;;;0.89;100.00
15794;BME280;7999;51.208;4.244;2023-01-29T09:24:59;102872.63;;;0.86;100.00
15794;BME280;7999;51.208;4.244;2023-01-29T09:27:26;102865.38;;;0.92;100.00
15794;BME280;7999;51.208;4.244;2023-01-29T09:29:53;102866.16;;;0.91;100.00
15794;BME280;7999;51.208;4.244;2023-01-29T09:32:20;102866.69;;;0.99;100.00
15794;BME280;7999;51.208;4.244;2023-01-29T09:34:48;102868.38;;;0.99;100.00
15794;BME280;7999;51.208;4.244;2023-01-29T09:37:14;102866.44;;;1.08;100.00
15794;BME280;7999;51.208;4.244;2023-01-29T09:39:41;102865.91;;;1.12;100.00
15794;BME280;7999;51.208;4.244;2023-01-29T09:42:09;102872.03;;;1.14;100.00
15794;BME280;7999;51.208;4.244;2023-01-29T09:44:44;102873.50;;;1.35;100.00
15794;BME280;7999;51.208;4.244;2023-01-29T09:47:13;102864.03;;;1.34;100.00
15794;BME280;7999;51.208;4.244;2023-01-29T09:49:42;102866.75;;;1.24;100.00
15794;BME280;7999;51.208;4.244;2023-01-29T09:52:15;102867.97;;;1.29;100.00
15794;BME280;7999;51.208;4.244;2023-01-29T09:54:47;102863.94;;;1.33;100.00
15794;BME280;7999;51.208;4.244;2023-01-29T09:57:18;102870.53;;;1.29;100.00
15794;BME280;7999;51.208;4.244;2023-01-29T09:59:48;102864.50;;;1.29;100.00
15794;BME280;7999;51.208;4.244;2023-01-29T10:02:19;102868.94;;;1.31;100.00
15794;BME280;7999;51.208;4.244;2023-01-29T10:04:54;102873.59;;;1.37;100.00
15794;BME280;7999;51.208;4.244;2023-01-29T10:10:15;102864.47;;;1.40;100.00
15794;BME280;7999;51.208;4.244;2023-01-29T10:12:49;102858.22;;;1.48;100.00
15794;BME280;7999;51.208;4.244;2023-01-29T10:15:23;102865.59;;;1.44;100.00
15794;BME280;7999;51.208;4.244;2023-01-29T10:17:59;102860.97;;;1.51;100.00
15794;BME280;7999;51.208;4.244;2023-01-29T10:23:24;102852.50;;;1.52;100.00
15794;BME280;7999;51.208;4.244;2023-01-29T10:25:53;102844.09;;;1.67;100.00
15794;BME280;7999;51.208;4.244;2023-01-29T10:28:23;102859.03;;;1.61;100.00
15794;BME280;7999;51.208;4.244;2023-01-29T10:30:53;102853.75;;;1.71;100.00
15794;BME280;7999;51.208;4.244;2023-01-29T10:33:24;102851.00;;;1.68;100.00
15794;BME280;7999;51.208;4.244;2023-01-29T10:35:52;102841.34;;;1.77;100.00
15794;BME280;7999;51.208;4.244;2023-01-29T10:38:23;102843.53;;;1.84;100.00
15794;BME280;7999;51.208;4.244;2023-01-29T10:40:55;102847.53;;;1.92;100.00
15794;BME280;7999;51.208;4.244;2023-01-29T10:43:27;102846.41;;;1.89;100.00
15794;BME280;7999;51.208;4.244;2023-01-29T10:45:59;102850.69;;;2.01;100.00
15794;BME280;7999;51.208;4.244;2023-01-29T10:51:23;102833.16;;;2.21;100.00
15794;BME280;7999;51.208;4.244;2023-01-29T10:53:54;102831.38;;;2.33;100.00
15794;BME280;7999;51.208;4.244;2023-01-29T10:56:31;102825.56;;;2.35;100.00
15794;BME280;7999;51.208;4.244;2023-01-29T10:59:00;102815.56;;;2.40;100.00
15794;BME280;7999;51.208;4.244;2023-01-29T11:01:29;102819.31;;;2.45;100.00
15794;BME280;7999;51.208;4.244;2023-01-29T11:03:56;102803.59;;;2.67;100.00
15794;BME280;7999;51.208;4.244;2023-01-29T11:06:27;102795.63;;;2.62;100.00
15794;BME280;7999;51.208;4.244;2023-01-29T11:08:55;102788.19;;;2.67;100.00
15794;BME280;7999;51.208;4.244;2023-01-29T11:11:25;102775.75;;;2.73;100.00
15794;BME280;7999;51.208;4.244;2023-01-29T11:14:02;102765.97;;;2.81;100.00
15794;BME280;7999;51.208;4.244;2023-01-29T11:16:38;102757.03;;;2.89;100.00
15794;BME280;7999;51.208;4.244;2023-01-29T11:19:05;102759.97;;;2.95;100.00
15794;BME280;7999;51.208;4.244;2023-01-29T11:21:33;102760.03;;;2.82;100.00
15794;BME280;7999;51.208;4.244;2023-01-29T11:24:15;102745.78;;;2.87;100.00
15794;BME280;7999;51.208;4.244;2023-01-29T11:26:43;102752.88;;;2.91;100.00
15794;BME280;7999;51.208;4.244;2023-01-29T11:29:32;102742.28;;;2.99;100.00
15794;BME280;7999;51.208;4.244;2023-01-29T11:32:00;102739.94;;;3.17;100.00
15794;BME280;7999;51.208;4.244;2023-01-29T11:34:29;102745.91;;;3.31;100.00
15794;BME280;7999;51.208;4.244;2023-01-29T11:36:56;102746.97;;;3.34;100.00
15794;BME280;7999;51.208;4.244;2023-01-29T11:39:24;102753.38;;;3.41;100.00
15794;BME280;7999;51.208;4.244;2023-01-29T11:41:52;102750.44;;;3.50;100.00
15794;BME280;7999;51.208;4.244;2023-01-29T11:44:20;102733.19;;;3.62;100.00
15794;BME280;7999;51.208;4.244;2023-01-29T11:46:49;102741.88;;;3.64;100.00
15794;BME280;7999;51.208;4.244;2023-01-29T11:49:24;102739.56;;;3.68;100.00
15794;BME280;7999;51.208;4.244;2023-01-29T11:51:53;102730.59;;;3.62;100.00
15794;BME280;7999;51.208;4.244;2023-01-29T11:54:21;102729.00;;;3.79;100.00
15794;BME280;7999;51.208;4.244;2023-01-29T11:56:50;102723.94;;;3.95;100.00
15794;BME280;7999;51.208;4.244;2023-01-29T11:59:25;102721.53;;;3.83;100.00
15794;BME280;7999;51.208;4.244;2023-01-29T12:01:56;102714.00;;;3.71;100.00
15794;BME280;7999;51.208;4.244;2023-01-29T12:04:29;102699.63;;;3.75;100.00
15794;BME280;7999;51.208;4.244;2023-01-29T12:06:55;102685.09;;;3.90;100.00
15794;BME280;7999;51.208;4.244;2023-01-29T12:09:23;102678.66;;;3.98;100.00
15794;BME280;7999;51.208;4.244;2023-01-29T12:11:51;102683.25;;;4.04;100.00
15794;BME280;7999;51.208;4.244;2023-01-29T12:14:23;102689.84;;;3.99;100.00
15794;BME280;7999;51.208;4.244;2023-01-29T12:16:52;102684.53;;;3.96;100.00
15794;BME280;7999;51.208;4.244;2023-01-29T12:19:24;102689.47;;;4.08;100.00
15794;BME280;7999;51.208;4.244;2023-01-29T12:21:54;102689.78;;;4.28;100.00
15794;BME280;7999;51.208;4.244;2023-01-29T12:24:29;102682.09;;;4.14;100.00
15794;BME280;7999;51.208;4.244;2023-01-29T12:26:59;102675.19;;;4.13;100.00
15794;BME280;7999;51.208;4.244;2023-01-29T12:29:30;102666.94;;;4.03;100.00
15794;BME280;7999;51.208;4.244;2023-01-29T12:32:01;102665.94;;;3.85;100.00
15794;BME280;7999;51.208;4.244;2023-01-29T12:34:34;102657.41;;;3.86;100.00
15794;BME280;7999;51.208;4.244;2023-01-29T12:37:09;102659.78;;;3.83;100.00
15794;BME280;7999;51.208;4.244;2023-01-29T12:39:37;102650.75;;;3.90;100.00
15794;BME280;7999;51.208;4.244;2023-01-29T12:42:07;102647.69;;;3.66;100.00
15794;BME280;7999;51.208;4.244;2023-01-29T12:44:36;102641.91;;;3.70;100.00
15794;BME280;7999;51.208;4.244;2023-01-29T12:47:07;102644.00;;;3.77;100.00
15794;BME280;7999;51.208;4.244;2023-01-29T12:49:39;102637.16;;;3.92;100.00
15794;BME280;7999;51.208;4.244;2023-01-29T12:52:08;102620.59;;;3.87;100.00
15794;BME280;7999;51.208;4.244;2023-01-29T12:54:38;102622.75;;;3.65;100.00
15794;BME280;7999;51.208;4.244;2023-01-29T12:57:07;102616.09;;;3.68;100.00
15794;BME280;7999;51.208;4.244;2023-01-29T12:59:36;102616.19;;;3.70;100.00
15794;BME280;7999;51.208;4.244;2023-01-29T13:02:09;102608.31;;;3.52;100.00
15794;BME280;7999;51.208;4.244;2023-01-29T13:04:42;102603.00;;;3.49;100.00
15794;BME280;7999;51.208;4.244;2023-01-29T13:07:11;102599.63;;;3.50;100.00
15794;BME280;7999;51.208;4.244;2023-01-29T13:09:40;102595.91;;;3.45;100.00
15794;BME280;7999;51.208;4.244;2023-01-29T13:12:10;102595.03;;;3.45;100.00
15794;BME280;7999;51.208;4.244;2023-01-29T13:14:41;102591.66;;;3.46;100.00
15794;BME280;7999;51.208;4.244;2023-01-29T13:17:11;102587.22;;;3.28;100.00